Time;durP1;ratioP1;P1;durP2;ratioP2;P2;SDS_P1;SDS_P2;PMS_P1;PMS_P2;Temp;Humidity;BMP_temperature;BMP_pressure;BME280_temperature;BME280_humidity;BME280_pressure;Samples;Min_cycle;Max_cycle;Signal;HPM_P1;HPM_P2
2022/07/18 00:01:55;;;;;;;2.80;1.00;;;15.80;1.00;;;;;;5044733;28;34240;-76
2022/07/18 00:04:21;;;;;;;1.58;1.13;;;15.80;1.00;;;;;;5025456;28;34122;-76
2022/07/18 00:06:47;;;;;;;0.93;0.90;;;15.70;1.00;;;;;;5025657;28;34276;-77
2022/07/18 00:09:13;;;;;;;2.78;1.00;;;15.80;1.00;;;;;;5020943;28;34108;-77
2022/07/18 00:11:39;;;;;;;1.33;1.13;;;15.70;1.00;;;;;;5023221;28;34949;-77
2022/07/18 00:14:05;;;;;;;1.17;0.95;;;15.70;1.00;;;;;;5008005;28;34386;-77
2022/07/18 00:16:32;;;;;;;1.48;0.70;;;15.60;1.00;;;;;;5008535;28;34167;-77
2022/07/18 00:18:58;;;;;;;1.55;0.95;;;15.60;1.00;;;;;;5024790;28;34183;-77
2022/07/18 00:21:25;;;;;;;2.60;1.08;;;15.50;1.00;;;;;;5024935;28;35818;-76
2022/07/18 00:23:51;;;;;;;3.83;1.10;;;15.40;1.00;;;;;;5042560;28;34168;-77
2022/07/18 00:26:17;;;;;;;0.95;0.90;;;15.40;1.00;;;;;;5024887;28;34136;-76
2022/07/18 00:28:43;;;;;;;1.00;0.90;;;15.30;1.00;;;;;;5058631;28;34090;-77
2022/07/18 00:31:09;;;;;;;0.80;0.80;;;15.30;1.00;;;;;;5024788;28;36722;-77
2022/07/18 00:33:35;;;;;;;1.98;1.27;;;15.30;1.00;;;;;;5024215;28;34061;-76
2022/07/18 00:36:02;;;;;;;1.35;1.23;;;15.20;1.00;;;;;;5024336;28;35758;-77
2022/07/18 00:38:28;;;;;;;1.92;1.27;;;15.20;1.00;;;;;;5042845;28;34009;-76
2022/07/18 00:40:53;;;;;;;1.52;0.98;;;15.10;1.00;;;;;;5024646;28;35687;-77
2022/07/18 00:43:19;;;;;;;1.23;1.08;;;15.20;1.00;;;;;;5024537;28;34062;-77
2022/07/18 00:45:47;;;;;;;2.83;0.90;;;15.10;1.00;;;;;;5024907;28;34213;-77
2022/07/18 00:48:14;;;;;;;1.92;1.15;;;15.10;1.00;;;;;;5042483;28;34445;-77
2022/07/18 00:50:41;;;;;;;3.10;0.93;;;15.10;1.00;;;;;;5024894;28;35531;-76
2022/07/18 00:53:10;;;;;;;1.35;1.00;;;15.00;1.00;;;;;;5023027;28;34375;-76
2022/07/18 00:55:39;;;;;;;1.27;0.73;;;14.90;1.00;;;;;;5023957;28;34144;-76
2022/07/18 00:58:05;;;;;;;0.98;0.80;;;14.90;1.00;;;;;;5047850;27;34322;-76
2022/07/18 01:03:12;;;;;;;1.48;1.10;;;14.90;1.00;;;;;;5098383;27;34180;-76
2022/07/18 01:05:38;;;;;;;4.55;1.10;;;14.80;1.00;;;;;;5008417;28;34273;-77
2022/07/18 01:08:04;;;;;;;1.35;1.10;;;14.80;1.00;;;;;;5008295;28;34207;-76
2022/07/18 01:10:30;;;;;;;4.10;1.00;;;14.80;1.00;;;;;;5004446;28;36357;-76
2022/07/18 01:12:56;;;;;;;0.98;0.90;;;14.70;1.00;;;;;;5006884;28;34020;-77
2022/07/18 01:15:22;;;;;;;1.13;1.00;;;14.70;1.00;;;;;;5004356;28;34179;-77
2022/07/18 01:17:49;;;;;;;1.23;1.08;;;14.70;1.00;;;;;;4995558;28;34318;-77
2022/07/18 01:20:15;;;;;;;1.25;1.15;;;14.60;1.00;;;;;;5005685;28;34172;-76
2022/07/18 01:22:42;;;;;;;3.00;1.05;;;14.60;1.00;;;;;;5023848;28;34232;-77
2022/07/18 01:25:09;;;;;;;1.17;1.08;;;14.50;1.00;;;;;;5100993;27;34250;-76
2022/07/18 01:27:35;;;;;;;4.18;1.30;;;14.50;1.00;;;;;;5002978;28;34747;-77
2022/07/18 01:30:03;;;;;;;1.88;1.27;;;14.50;1.00;;;;;;5023452;28;35731;-76
2022/07/18 01:32:28;;;;;;;0.90;0.85;;;14.40;1.00;;;;;;4989493;28;34163;-76
2022/07/18 01:34:54;;;;;;;1.67;1.13;;;14.40;1.00;;;;;;5058072;28;34456;-76
2022/07/18 01:37:20;;;;;;;2.03;0.95;;;14.40;1.00;;;;;;4985584;28;34211;-77
2022/07/18 01:39:46;;;;;;;2.13;1.30;;;14.30;1.00;;;;;;4973462;28;35809;-77
2022/07/18 01:42:13;;;;;;;1.63;1.50;;;14.30;1.00;;;;;;5022019;28;34127;-76
2022/07/18 01:44:40;;;;;;;2.00;1.10;;;14.30;1.00;;;;;;5001276;28;34167;-76
2022/07/18 01:47:07;;;;;;;1.30;1.20;;;14.20;1.00;;;;;;5000719;28;34391;-76
2022/07/18 01:49:33;;;;;;;1.02;0.93;;;14.20;1.00;;;;;;4981480;28;35697;-76
2022/07/18 01:52:00;;;;;;;1.40;1.30;;;14.20;1.00;;;;;;5000764;28;34136;-76
2022/07/18 01:54:29;;;;;;;1.25;1.10;;;14.10;1.00;;;;;;5000884;28;34181;-76
2022/07/18 01:56:56;;;;;;;1.88;1.05;;;14.10;1.00;;;;;;5006670;28;34270;-77
2022/07/18 01:59:23;;;;;;;3.88;1.63;;;14.00;1.00;;;;;;5015265;28;34348;-76
2022/07/18 02:01:49;;;;;;;1.40;1.25;;;14.00;1.00;;;;;;5020490;28;34165;-76
2022/07/18 02:04:16;;;;;;;1.30;1.20;;;13.90;1.00;;;;;;5020314;28;34071;-76
2022/07/18 02:06:42;;;;;;;1.50;1.25;;;13.90;1.00;;;;;;5020630;28;34161;-77
2022/07/18 02:09:09;;;;;;;1.30;1.17;;;13.80;1.00;;;;;;5014717;28;34952;-76
2022/07/18 02:11:35;;;;;;;1.35;1.25;;;13.80;1.00;;;;;;5004293;28;34330;-77
2022/07/18 02:14:02;;;;;;;1.92;1.33;;;13.70;1.00;;;;;;5002372;28;34104;-76
2022/07/18 02:16:28;;;;;;;4.65;1.40;;;13.70;1.00;;;;;;5047083;28;34126;-76
2022/07/18 02:18:55;;;;;;;1.33;1.23;;;13.70;1.10;;;;;;5006882;28;34178;-76
2022/07/18 02:21:21;;;;;;;1.30;1.20;;;13.70;1.10;;;;;;5020561;28;34205;-76
2022/07/18 02:23:47;;;;;;;1.65;1.30;;;13.60;1.20;;;;;;5020137;28;34256;-76
2022/07/18 02:26:13;;;;;;;1.77;1.48;;;13.60;1.20;;;;;;5053197;28;34092;-76
2022/07/18 02:28:39;;;;;;;2.58;1.50;;;13.50;1.40;;;;;;5020228;28;36259;-76
2022/07/18 02:31:06;;;;;;;2.20;1.50;;;13.50;1.40;;;;;;5020159;28;34385;-76
2022/07/18 02:33:32;;;;;;;2.60;1.20;;;13.40;1.60;;;;;;5003979;28;34306;-76
2022/07/18 02:35:58;;;;;;;1.67;1.42;;;13.40;1.50;;;;;;5020072;28;34436;-76
2022/07/18 02:38:24;;;;;;;1.98;1.17;;;13.40;1.70;;;;;;5025097;28;34569;-76
2022/07/18 02:40:50;;;;;;;2.25;1.30;;;13.30;1.60;;;;;;5052906;27;35627;-76
2022/07/18 02:43:16;;;;;;;2.33;1.52;;;13.30;1.90;;;;;;5019914;28;34191;-76
2022/07/18 02:45:42;;;;;;;1.88;1.30;;;13.30;1.80;;;;;;5024110;28;34286;-76
2022/07/18 02:48:09;;;;;;;3.00;1.42;;;13.20;1.80;;;;;;5011116;28;35645;-76
2022/07/18 02:50:35;;;;;;;3.60;1.10;;;13.20;2.00;;;;;;5025303;28;34194;-76
2022/07/18 02:53:01;;;;;;;4.43;1.50;;;13.20;2.10;;;;;;5007938;28;34269;-76
2022/07/18 02:55:26;;;;;;;1.90;1.50;;;13.20;2.10;;;;;;5054376;27;34127;-76
2022/07/18 02:57:52;;;;;;;1.65;1.35;;;13.10;2.10;;;;;;5016419;28;36666;-76
2022/07/18 03:00:19;;;;;;;1.77;1.40;;;13.10;2.20;;;;;;5015821;28;34151;-76
2022/07/18 03:02:45;;;;;;;2.67;1.40;;;13.10;2.50;;;;;;5019687;28;34166;-76
2022/07/18 03:05:12;;;;;;;1.98;1.50;;;13.00;2.40;;;;;;5019832;28;34479;-76
2022/07/18 03:07:38;;;;;;;4.65;1.70;;;13.00;2.30;;;;;;5019340;28;36417;-76
2022/07/18 03:10:05;;;;;;;1.75;1.23;;;13.00;2.40;;;;;;5021048;28;34133;-76
2022/07/18 03:12:32;;;;;;;1.88;1.67;;;12.90;2.60;;;;;;5019933;28;34278;-76
2022/07/18 03:14:59;;;;;;;1.33;1.23;;;12.90;2.60;;;;;;5007751;28;34265;-76
2022/07/18 03:17:25;;;;;;;1.70;1.50;;;12.90;2.60;;;;;;5014491;28;34866;-76
2022/07/18 03:19:51;;;;;;;1.52;1.38;;;12.90;2.60;;;;;;5009611;28;34168;-77
2022/07/18 03:22:17;;;;;;;1.65;1.55;;;12.90;2.70;;;;;;5019444;28;34325;-76
2022/07/18 03:24:44;;;;;;;1.48;1.38;;;12.80;2.70;;;;;;5009146;28;34310;-76
2022/07/18 03:27:10;;;;;;;2.42;1.65;;;12.80;2.90;;;;;;4994541;28;35781;-76
2022/07/18 03:29:36;;;;;;;1.75;1.65;;;12.80;3.10;;;;;;4989537;28;34198;-76
2022/07/18 03:32:02;;;;;;;2.55;1.30;;;12.80;3.10;;;;;;5016624;28;34171;-76
2022/07/18 03:34:28;;;;;;;1.38;1.25;;;12.70;3.20;;;;;;5013410;28;34133;-76
2022/07/18 03:36:54;;;;;;;2.00;1.50;;;12.70;3.40;;;;;;4999763;28;35536;-76
2022/07/18 03:39:20;;;;;;;2.97;1.60;;;12.70;3.30;;;;;;4997582;28;34211;-76
2022/07/18 03:41:46;;;;;;;2.00;1.40;;;12.60;3.30;;;;;;5002612;28;34386;-76
2022/07/18 03:44:12;;;;;;;5.60;1.50;;;12.60;3.40;;;;;;4999789;28;35474;-76
2022/07/18 03:46:37;;;;;;;1.30;1.20;;;12.60;3.50;;;;;;4996654;28;35552;-76
2022/07/18 03:49:04;;;;;;;1.90;1.30;;;12.50;3.50;;;;;;5007663;28;34155;-76
2022/07/18 03:51:30;;;;;;;3.55;1.40;;;12.50;3.70;;;;;;5017880;28;35574;-76
2022/07/18 03:53:56;;;;;;;2.50;1.60;;;12.50;3.60;;;;;;5000917;28;34752;-76
2022/07/18 03:56:22;;;;;;;4.13;1.58;;;12.50;3.60;;;;;;5007254;28;35763;-76
2022/07/18 03:58:48;;;;;;;5.10;1.40;;;12.50;3.70;;;;;;5001592;28;34364;-76
2022/07/18 04:01:14;;;;;;;3.20;1.50;;;12.50;3.70;;;;;;5019485;28;34158;-76
2022/07/18 04:03:40;;;;;;;1.60;1.50;;;12.40;3.70;;;;;;5006684;28;34017;-76
2022/07/18 04:06:06;;;;;;;2.38;1.48;;;12.40;3.80;;;;;;4998957;28;35570;-76
2022/07/18 04:08:32;;;;;;;2.95;1.70;;;12.40;4.00;;;;;;4996316;28;34436;-77
2022/07/18 04:10:58;;;;;;;2.72;1.55;;;12.40;4.00;;;;;;5001655;28;34323;-76
2022/07/18 04:13:24;;;;;;;1.83;1.73;;;12.40;3.90;;;;;;5003093;28;34167;-76
2022/07/18 04:15:50;;;;;;;1.90;1.50;;;12.40;4.10;;;;;;5039245;28;34183;-76
2022/07/18 04:18:15;;;;;;;1.70;1.55;;;12.40;3.90;;;;;;5021860;28;34209;-76
2022/07/18 04:20:42;;;;;;;3.55;1.70;;;12.40;4.00;;;;;;5039158;28;34337;-76
2022/07/18 04:23:09;;;;;;;3.13;1.77;;;12.50;4.10;;;;;;5020973;28;34544;-76
2022/07/18 04:25:38;;;;;;;3.97;1.63;;;12.50;4.40;;;;;;5039422;28;34357;-76
2022/07/18 04:28:04;;;;;;;1.75;1.55;;;12.50;4.40;;;;;;5023051;28;34700;-76
2022/07/18 04:30:31;;;;;;;3.63;1.92;;;12.60;4.10;;;;;;5008547;28;34329;-76
2022/07/18 04:33:00;;;;;;;1.80;1.70;;;12.60;4.10;;;;;;5042551;28;34389;-75
2022/07/18 04:35:26;;;;;;;2.55;1.33;;;12.60;4.10;;;;;;5024693;28;35831;-76
2022/07/18 04:37:52;;;;;;;3.15;1.70;;;12.70;4.10;;;;;;5025286;28;34109;-76
2022/07/18 04:40:18;;;;;;;2.55;1.38;;;12.70;4.20;;;;;;5038912;28;35648;-76
2022/07/18 04:42:44;;;;;;;1.83;1.63;;;12.80;4.10;;;;;;5025057;28;34111;-76
2022/07/18 04:45:11;;;;;;;3.08;1.52;;;12.80;4.10;;;;;;5008261;28;36632;-76
2022/07/18 04:47:36;;;;;;;1.77;1.60;;;12.80;4.10;;;;;;5024661;28;34139;-76
2022/07/18 04:50:04;;;;;;;2.30;1.80;;;12.80;4.10;;;;;;5035560;28;34124;-76
2022/07/18 04:52:39;;;;;;;1.70;1.50;;;12.80;4.20;;;;;;5025069;28;34097;-76
2022/07/18 04:55:06;;;;;;;2.28;1.60;;;12.90;6.00;;;;;;5017996;28;35796;-76
2022/07/18 04:57:34;;;;;;;1.77;1.60;;;12.90;4.20;;;;;;5037750;28;34100;-76
2022/07/18 05:00:01;;;;;;;3.97;1.88;;;13.00;4.20;;;;;;5040872;28;34136;-76
2022/07/18 05:02:26;;;;;;;1.92;1.50;;;13.00;4.20;;;;;;5012309;28;34268;-76
2022/07/18 05:04:52;;;;;;;1.70;1.27;;;13.10;4.30;;;;;;5041612;28;34819;-76
2022/07/18 05:07:18;;;;;;;2.58;1.65;;;13.20;4.20;;;;;;5004664;28;34206;-76
2022/07/18 05:09:44;;;;;;;2.55;1.65;;;13.20;4.30;;;;;;5038295;28;34347;-76
2022/07/18 05:12:10;;;;;;;5.43;1.70;;;13.30;4.20;;;;;;5055095;28;34096;-76
2022/07/18 05:14:36;;;;;;;2.50;1.85;;;13.30;4.10;;;;;;5040534;28;36509;-76
2022/07/18 05:17:03;;;;;;;2.30;1.50;;;13.40;4.20;;;;;;5018711;28;34204;-76
2022/07/18 05:19:29;;;;;;;1.73;1.40;;;13.50;4.20;;;;;;5007794;28;34357;-76
2022/07/18 05:21:55;;;;;;;2.60;1.67;;;13.60;4.10;;;;;;5040910;28;34431;-76
2022/07/18 05:24:21;;;;;;;3.47;1.60;;;13.70;4.00;;;;;;5024028;28;35814;-76
2022/07/18 05:26:47;;;;;;;1.60;1.50;;;14.00;3.90;;;;;;5004564;28;34258;-76
2022/07/18 05:29:13;;;;;;;5.28;1.80;;;14.50;3.60;;;;;;5040233;27;34500;-77
2022/07/18 05:31:41;;;;;;;1.80;1.70;;;15.10;2.80;;;;;;5041231;28;34487;-76
2022/07/18 05:34:08;;;;;;;2.95;1.80;;;15.90;2.20;;;;;;5017651;28;36055;-76
2022/07/18 05:36:34;;;;;;;7.65;1.90;;;16.70;1.00;;;;;;5017323;28;34350;-77
2022/07/18 05:39:01;;;;;;;2.88;1.60;;;17.40;1.00;;;;;;5033300;27;34286;-76
2022/07/18 05:41:27;;;;;;;3.42;1.70;;;18.00;1.00;;;;;;5027541;28;34417;-77
2022/07/18 05:43:53;;;;;;;4.25;1.60;;;18.70;1.00;;;;;;5032433;28;34268;-77
2022/07/18 05:46:18;;;;;;;2.00;1.48;;;19.60;1.00;;;;;;5016667;28;34246;-77
2022/07/18 05:48:45;;;;;;;1.90;1.30;;;20.20;1.00;;;;;;5034943;27;34201;-77
2022/07/18 05:51:11;;;;;;;4.45;1.90;;;20.80;1.00;;;;;;5017052;28;34097;-77
2022/07/18 05:53:37;;;;;;;3.40;1.85;;;21.30;1.00;;;;;;4996035;28;36571;-77
2022/07/18 05:56:04;;;;;;;1.83;1.42;;;21.70;1.00;;;;;;5008121;28;34293;-77
2022/07/18 05:58:30;;;;;;;2.05;1.40;;;22.10;1.00;;;;;;5001525;28;34333;-77
2022/07/18 06:00:56;;;;;;;3.72;1.67;;;22.50;1.00;;;;;;5014148;28;34148;-77
2022/07/18 06:03:22;;;;;;;2.65;1.50;;;22.80;1.00;;;;;;5024340;28;35644;-78
2022/07/18 06:05:48;;;;;;;1.65;1.42;;;23.20;1.00;;;;;;5023936;28;34136;-77
2022/07/18 06:08:13;;;;;;;2.60;1.27;;;23.60;1.00;;;;;;5039822;28;33981;-77
2022/07/18 06:10:40;;;;;;;8.15;1.48;;;24.00;1.00;;;;;;5054808;28;34120;-79
2022/07/18 06:13:06;;;;;;;3.15;1.58;;;24.40;1.00;;;;;;5008547;28;35505;-77
2022/07/18 06:15:32;;;;;;;2.42;1.30;;;24.70;1.00;;;;;;5051068;27;33916;-78
2022/07/18 06:17:59;;;;;;;2.00;1.30;;;25.10;1.00;;;;;;5016168;28;34301;-78
2022/07/18 06:20:26;;;;;;;1.92;1.20;;;25.60;1.00;;;;;;5054088;28;34103;-77
2022/07/18 06:22:52;;;;;;;3.30;1.38;;;25.90;1.00;;;;;;5040254;28;34566;-78
2022/07/18 06:25:18;;;;;;;1.25;1.13;;;26.40;1.00;;;;;;5035858;28;34177;-77
2022/07/18 06:27:44;;;;;;;1.63;1.20;;;26.80;1.00;;;;;;5044499;28;34180;-77
2022/07/18 06:30:11;;;;;;;4.70;1.30;;;27.10;1.00;;;;;;5037125;27;34334;-77
2022/07/18 06:32:39;;;;;;;1.98;1.40;;;27.50;1.00;;;;;;5087314;27;36853;-78
2022/07/18 06:35:06;;;;;;;4.35;1.25;;;27.90;1.00;;;;;;5088809;27;34078;-78
2022/07/18 06:37:32;;;;;;;1.52;1.30;;;28.30;1.00;;;;;;5049658;27;33766;-77
2022/07/18 06:39:58;;;;;;;2.80;1.20;;;28.60;1.00;;;;;;5057480;27;34340;-77
2022/07/18 06:42:24;;;;;;;2.92;1.70;;;29.00;1.00;;;;;;5018023;28;35757;-77
2022/07/18 06:44:50;;;;;;;3.67;1.13;;;29.20;1.00;;;;;;5036774;28;33672;-77
2022/07/18 06:47:17;;;;;;;1.83;1.30;;;29.40;1.00;;;;;;5027580;28;34129;-77
2022/07/18 06:49:43;;;;;;;1.40;1.30;;;29.50;1.00;;;;;;5060854;27;34359;-77
2022/07/18 06:52:11;;;;;;;4.90;1.20;;;29.70;1.00;;;;;;5067979;27;34281;-77
2022/07/18 06:54:40;;;;;;;1.88;1.30;;;29.90;1.00;;;;;;5032856;27;34170;-77
2022/07/18 06:57:07;;;;;;;5.97;1.50;;;30.10;1.00;;;;;;5035510;27;34323;-77
2022/07/18 06:59:33;;;;;;;15.40;2.17;;;30.30;1.00;;;;;;5041511;28;34139;-75
2022/07/18 07:01:59;;;;;;;5.25;1.73;;;30.50;1.00;;;;;;5016444;28;35892;-74
2022/07/18 07:04:25;;;;;;;8.77;1.40;;;30.50;1.00;;;;;;5019975;28;34298;-75
2022/07/18 07:06:51;;;;;;;5.35;1.30;;;30.30;1.00;;;;;;5025727;28;34314;-75
2022/07/18 07:09:17;;;;;;;4.40;1.35;;;30.30;1.00;;;;;;5049837;28;34245;-75
2022/07/18 07:11:43;;;;;;;2.47;1.50;;;30.50;1.00;;;;;;5041688;28;35128;-74
2022/07/18 07:14:09;;;;;;;1.20;1.00;;;30.60;1.00;;;;;;5038362;28;34316;-75
2022/07/18 07:16:35;;;;;;;2.03;1.38;;;30.70;1.00;;;;;;5024561;28;34116;-75
2022/07/18 07:19:01;;;;;;;1.77;1.10;;;30.90;1.00;;;;;;5022940;28;34506;-75
2022/07/18 07:21:27;;;;;;;1.17;1.08;;;30.90;1.00;;;;;;5075616;27;35676;-75
2022/07/18 07:23:53;;;;;;;1.65;1.10;;;30.90;1.00;;;;;;5031948;27;34376;-76
2022/07/18 07:26:19;;;;;;;1.65;1.02;;;31.10;1.00;;;;;;5038646;27;34097;-76
2022/07/18 07:28:45;;;;;;;1.55;1.20;;;31.30;1.00;;;;;;5032018;28;34322;-75
2022/07/18 07:31:11;;;;;;;2.88;1.13;;;31.50;1.00;;;;;;5032166;27;35591;-76
2022/07/18 07:33:37;;;;;;;4.47;1.05;;;31.70;1.00;;;;;;5043413;27;34373;-76
2022/07/18 07:36:04;;;;;;;1.05;0.90;;;31.80;1.00;;;;;;5066771;27;34320;-76
2022/07/18 07:38:30;;;;;;;1.88;0.90;;;31.70;1.00;;;;;;5030413;28;34056;-76
2022/07/18 07:40:57;;;;;;;1.45;0.80;;;31.70;1.00;;;;;;5051764;27;36234;-76
2022/07/18 07:43:24;;;;;;;1.00;0.90;;;31.80;1.00;;;;;;5051095;27;34386;-76
2022/07/18 07:45:52;;;;;;;1.20;1.10;;;32.00;1.00;;;;;;5015039;28;34337;-76
2022/07/18 07:48:18;;;;;;;2.78;1.15;;;32.00;1.00;;;;;;5032743;27;34434;-76
2022/07/18 07:50:45;;;;;;;4.18;2.50;;;32.20;1.00;;;;;;5020818;27;36518;-76
2022/07/18 07:53:11;;;;;;;2.53;0.95;;;32.40;1.00;;;;;;5031220;27;34247;-75
2022/07/18 07:55:37;;;;;;;2.15;1.15;;;32.30;1.00;;;;;;5007387;28;34093;-76
2022/07/18 07:58:05;;;;;;;48.17;4.18;;;32.50;1.00;;;;;;5019046;28;34127;-76
2022/07/18 08:00:31;;;;;;;6.40;1.10;;;32.60;1.00;;;;;;5018127;28;35801;-76
2022/07/18 08:03:02;;;;;;;3.13;0.90;;;32.80;1.00;;;;;;5020749;28;34222;-76
2022/07/18 08:05:29;;;;;;;0.98;0.90;;;33.10;1.00;;;;;;5009484;28;34188;-76
2022/07/18 08:07:57;;;;;;;2.78;0.80;;;33.40;1.00;;;;;;5016502;28;34476;-75
2022/07/18 08:10:23;;;;;;;3.85;1.00;;;33.50;1.00;;;;;;5065904;27;34051;-76
2022/07/18 08:12:49;;;;;;;1.45;0.80;;;33.60;1.00;;;;;;5024404;28;34186;-76
2022/07/18 08:15:15;;;;;;;2.95;1.20;;;33.80;1.00;;;;;;5028592;27;34376;-77
2022/07/18 08:17:42;;;;;;;0.80;0.80;;;34.00;1.00;;;;;;5035240;27;34368;-76
2022/07/18 08:20:08;;;;;;;1.45;0.88;;;34.20;1.00;;;;;;5025161;28;35807;-76
2022/07/18 08:22:34;;;;;;;1.20;0.82;;;34.40;1.00;;;;;;5039998;28;34139;-78
2022/07/18 08:25:02;;;;;;;0.95;0.90;;;34.60;1.00;;;;;;5045805;28;34156;-76
2022/07/18 08:27:28;;;;;;;1.52;0.80;;;34.80;1.00;;;;;;5028900;28;34464;-76
2022/07/18 08:29:54;;;;;;;2.15;0.80;;;35.00;1.00;;;;;;5023610;28;36413;-76
2022/07/18 08:32:20;;;;;;;2.85;0.65;;;35.20;1.00;;;;;;5001957;28;34179;-76
2022/07/18 08:34:46;;;;;;;1.20;0.73;;;35.40;1.00;;;;;;5043534;28;34085;-76
2022/07/18 08:37:12;;;;;;;1.20;0.93;;;35.60;1.00;;;;;;5006918;28;34317;-76
2022/07/18 08:39:37;;;;;;;3.75;1.00;;;35.60;1.00;;;;;;5030237;28;35605;-77
2022/07/18 08:42:04;;;;;;;1.85;0.80;;;35.50;1.00;;;;;;5013469;28;34297;-76
2022/07/18 08:44:34;;;;;;;2.08;0.70;;;35.50;1.00;;;;;;5041740;27;34499;-76
2022/07/18 08:47:00;;;;;;;2.15;0.70;;;35.70;1.00;;;;;;5023912;28;34028;-76
2022/07/18 08:49:26;;;;;;;0.75;0.75;;;35.70;1.00;;;;;;5011860;28;35580;-76
2022/07/18 08:51:53;;;;;;;1.48;0.80;;;35.70;1.00;;;;;;5027356;28;34409;-77
2022/07/18 08:54:19;;;;;;;0.65;0.60;;;35.60;1.00;;;;;;5019906;28;34275;-77
2022/07/18 08:56:45;;;;;;;4.28;1.08;;;35.50;1.00;;;;;;5017797;28;34255;-76
2022/07/18 08:59:11;;;;;;;2.25;0.80;;;35.60;1.00;;;;;;5004694;28;36598;-76
2022/07/18 09:01:37;;;;;;;2.95;0.80;;;35.60;1.00;;;;;;5033767;28;34344;-76
2022/07/18 09:06:50;;;;;;;2.25;0.85;;;35.90;1.00;;;;;;5038626;27;34297;-77
2022/07/18 09:09:17;;;;;;;2.97;0.80;;;35.80;1.00;;;;;;5038227;28;36658;-76
2022/07/18 09:12:00;;;;;;;1.38;0.70;;;35.90;1.00;;;;;;5020046;28;34236;-77
2022/07/18 09:14:43;;;;;;;0.70;0.70;;;36.00;1.00;;;;;;5040206;27;35151;-77
2022/07/18 09:17:15;;;;;;;1.60;0.90;;;36.10;1.00;;;;;;4995444;28;34270;-76
2022/07/18 09:19:59;;;;;;;0.80;0.70;;;36.30;1.00;;;;;;4994770;28;36074;-77
2022/07/18 09:22:27;;;;;;;3.67;1.10;;;36.30;1.00;;;;;;5001063;28;34461;-76
2022/07/18 09:25:11;;;;;;;2.25;0.80;;;36.40;1.00;;;;;;5008228;28;34413;-77
2022/07/18 09:27:41;;;;;;;1.05;0.98;;;36.50;1.00;;;;;;5005588;27;34388;-77
2022/07/18 09:30:28;;;;;;;0.50;0.50;;;36.50;1.00;;;;;;5022207;27;34430;-76
2022/07/18 09:33:07;;;;;;;1.13;0.68;;;36.60;1.00;;;;;;4985238;28;34849;-76
2022/07/18 09:35:43;;;;;;;0.77;0.75;;;36.60;1.00;;;;;;4984389;28;34084;-77
2022/07/18 09:38:12;;;;;;;1.77;0.70;;;36.40;1.00;;;;;;4985663;28;34084;-78
2022/07/18 09:40:41;;;;;;;2.55;0.90;;;36.30;1.00;;;;;;4983074;28;35736;-78
2022/07/18 09:43:11;;;;;;;1.30;1.02;;;36.50;1.00;;;;;;4994033;28;34496;-77
2022/07/18 09:45:42;;;;;;;1.25;0.88;;;36.60;1.00;;;;;;4997840;28;34279;-77
2022/07/18 09:48:11;;;;;;;1.20;0.93;;;36.90;1.00;;;;;;5026750;28;34808;-78
2022/07/18 09:50:42;;;;;;;1.60;0.73;;;37.00;1.00;;;;;;4968972;28;36382;-76
2022/07/18 09:53:12;;;;;;;1.38;0.80;;;37.10;1.00;;;;;;4983434;28;34347;-76
2022/07/18 09:55:43;;;;;;;21.42;2.13;;;37.20;1.00;;;;;;5009657;28;34474;-78
2022/07/18 09:58:10;;;;;;;1.50;0.95;;;37.20;1.00;;;;;;4985848;28;34156;-77
2022/07/18 10:00:38;;;;;;;2.35;0.85;;;37.30;1.00;;;;;;4999166;28;35504;-76
2022/07/18 10:03:06;;;;;;;3.40;0.70;;;37.50;1.00;;;;;;5015584;28;34293;-77
2022/07/18 10:05:35;;;;;;;2.47;1.02;;;37.40;1.00;;;;;;4984795;28;34505;-77
2022/07/18 10:08:04;;;;;;;0.93;0.77;;;37.50;1.00;;;;;;5029482;28;34890;-78
2022/07/18 10:10:32;;;;;;;1.27;0.70;;;37.50;1.00;;;;;;5038407;27;36536;-76
2022/07/18 10:13:00;;;;;;;1.85;0.60;;;37.30;1.00;;;;;;5002428;28;34206;-76
2022/07/18 10:15:29;;;;;;;1.10;0.77;;;37.30;1.00;;;;;;5024713;27;34238;-77
2022/07/18 10:17:57;;;;;;;3.85;0.88;;;37.10;1.00;;;;;;5017728;28;34841;-76
2022/07/18 10:20:37;;;;;;;1.15;0.65;;;37.20;1.00;;;;;;5012063;28;35669;-77
2022/07/18 10:23:10;;;;;;;1.17;0.70;;;37.30;1.00;;;;;;5034696;28;34285;-76
2022/07/18 10:25:37;;;;;;;2.10;0.80;;;37.40;1.00;;;;;;5027966;27;34364;-77
2022/07/18 10:28:08;;;;;;;1.52;0.77;;;37.50;1.00;;;;;;5016102;28;34222;-76
2022/07/18 10:30:38;;;;;;;1.83;1.48;;;37.70;1.00;;;;;;5016282;28;36629;-76
2022/07/18 10:33:24;;;;;;;0.80;0.70;;;37.90;1.00;;;;;;5011884;28;34350;-77
2022/07/18 10:36:03;;;;;;;4.75;0.70;;;38.10;1.00;;;;;;5003318;28;34920;-76
2022/07/18 10:38:30;;;;;;;0.73;0.70;;;38.20;1.00;;;;;;5030146;28;34413;-78
2022/07/18 10:41:07;;;;;;;3.05;0.70;;;38.30;1.00;;;;;;5056966;27;36720;-75
2022/07/18 10:43:35;;;;;;;1.13;0.57;;;38.30;1.00;;;;;;5029242;28;34191;-76
2022/07/18 10:46:03;;;;;;;2.78;0.85;;;38.50;1.00;;;;;;5025391;27;34238;-79
2022/07/18 10:48:50;;;;;;;0.82;0.82;;;38.40;1.00;;;;;;5023967;28;34254;-76
2022/07/18 10:51:16;;;;;;;0.90;0.80;;;38.40;1.00;;;;;;5005242;28;35809;-76
2022/07/18 10:54:03;;;;;;;0.85;0.60;;;38.50;1.00;;;;;;5004061;28;34530;-77
2022/07/18 10:57:05;;;;;;;0.70;0.70;;;38.40;1.00;;;;;;5059154;28;34368;-76
2022/07/18 10:59:31;;;;;;;2.05;0.93;;;38.40;1.00;;;;;;5017235;27;34306;-76
2022/07/18 11:01:57;;;;;;;0.85;0.70;;;38.50;1.00;;;;;;5014502;28;36149;-76
2022/07/18 11:04:30;;;;;;;1.85;0.80;;;38.30;1.00;;;;;;5017837;28;34505;-77
2022/07/18 11:07:03;;;;;;;0.93;0.70;;;38.30;1.00;;;;;;5031914;28;35316;-75
2022/07/18 11:09:36;;;;;;;0.90;0.80;;;38.20;1.00;;;;;;5012879;28;34263;-77
2022/07/18 11:12:20;;;;;;;5.88;0.90;;;38.30;1.00;;;;;;5032480;28;36350;-80
2022/07/18 11:15:04;;;;;;;0.90;0.65;;;38.50;1.00;;;;;;5031534;27;34359;-77
2022/07/18 11:18:00;;;;;;;0.50;0.50;;;38.70;1.00;;;;;;5012519;28;34410;-76
2022/07/18 11:20:37;;;;;;;1.00;0.77;;;38.70;1.00;;;;;;5038824;27;34246;-77
2022/07/18 11:23:14;;;;;;;0.70;0.70;;;38.90;1.00;;;;;;5038039;28;35907;-76
2022/07/18 11:25:40;;;;;;;1.92;0.60;;;38.80;1.00;;;;;;5032579;28;34305;-79
2022/07/18 11:28:10;;;;;;;2.75;0.70;;;38.70;1.00;;;;;;5002354;28;34263;-76
2022/07/18 11:30:37;;;;;;;3.75;0.63;;;38.40;1.00;;;;;;5032315;28;34232;-77
2022/07/18 11:33:03;;;;;;;2.28;0.60;;;38.50;1.00;;;;;;5028836;28;34331;-76
2022/07/18 11:35:29;;;;;;;2.00;0.98;;;38.60;1.00;;;;;;5030099;28;34308;-76
2022/07/18 11:37:55;;;;;;;1.05;0.63;;;38.70;1.00;;;;;;5019724;28;34397;-77
2022/07/18 11:40:22;;;;;;;1.17;0.80;;;38.90;1.00;;;;;;5037583;28;34280;-78
2022/07/18 11:42:48;;;;;;;2.42;0.73;;;38.80;1.00;;;;;;5026751;28;35735;-76
2022/07/18 11:45:16;;;;;;;2.15;0.70;;;38.60;1.00;;;;;;5019425;28;34322;-77
2022/07/18 11:47:49;;;;;;;0.63;0.63;;;38.50;1.00;;;;;;5033375;28;34171;-79
2022/07/18 11:50:17;;;;;;;1.25;0.70;;;38.50;1.00;;;;;;5017293;28;34764;-77
2022/07/18 11:52:44;;;;;;;1.17;0.70;;;38.40;1.00;;;;;;5044121;28;34372;-78
2022/07/18 11:55:13;;;;;;;1.83;0.60;;;38.50;1.00;;;;;;5003579;28;34197;-79
2022/07/18 11:57:39;;;;;;;3.25;0.93;;;38.50;1.00;;;;;;5007662;28;34337;-76
2022/07/18 12:00:20;;;;;;;2.35;0.55;;;38.50;1.00;;;;;;5029427;27;34407;-78
2022/07/18 12:03:17;;;;;;;1.80;0.60;;;38.60;1.00;;;;;;5053635;27;36099;-77
2022/07/18 12:05:48;;;;;;;0.85;0.70;;;38.70;1.00;;;;;;5054116;27;34248;-79
2022/07/18 12:08:31;;;;;;;5.38;0.70;;;39.00;1.00;;;;;;5006330;28;34468;-77
2022/07/18 12:11:07;;;;;;;0.50;0.50;;;39.10;1.00;;;;;;5046086;27;34380;-76
2022/07/18 12:13:43;;;;;;;2.88;0.63;;;39.10;1.00;;;;;;5004392;28;36001;-77
2022/07/18 12:16:42;;;;;;;3.78;0.70;;;39.30;1.00;;;;;;5004311;28;34140;-77
2022/07/18 12:19:12;;;;;;;3.40;0.70;;;39.10;1.00;;;;;;5013621;28;34331;-76
2022/07/18 12:21:40;;;;;;;2.80;0.80;;;39.10;1.00;;;;;;5034351;27;34692;-77
2022/07/18 12:24:27;;;;;;;7.38;0.90;;;39.10;1.00;;;;;;5006457;28;36452;-76
2022/07/18 12:27:23;;;;;;;0.70;0.70;;;39.20;1.00;;;;;;5024268;28;34536;-76
2022/07/18 12:30:13;;;;;;;3.25;0.70;;;39.10;1.00;;;;;;5059597;28;35321;-76
2022/07/18 12:32:42;;;;;;;1.13;0.70;;;39.10;1.00;;;;;;5033811;28;34341;-76
2022/07/18 12:35:12;;;;;;;1.45;0.68;;;39.00;1.00;;;;;;5011676;28;35881;-78
2022/07/18 12:37:38;;;;;;;1.70;0.70;;;38.90;1.00;;;;;;5005781;28;34212;-76
2022/07/18 12:40:08;;;;;;;2.92;0.80;;;38.80;1.00;;;;;;5041326;28;34179;-79
2022/07/18 12:42:38;;;;;;;3.15;0.80;;;38.90;1.00;;;;;;5032265;28;34206;-78
2022/07/18 12:45:05;;;;;;;1.70;0.80;;;38.70;1.00;;;;;;5037932;28;36282;-77
2022/07/18 12:47:32;;;;;;;37.20;3.45;;;38.70;1.00;;;;;;5003756;28;34362;-77
2022/07/18 12:49:58;;;;;;;1.38;0.63;;;38.70;1.00;;;;;;5037226;28;34420;-79
2022/07/18 12:52:24;;;;;;;1.58;1.15;;;38.70;1.00;;;;;;5023729;28;34228;-76
2022/07/18 12:54:50;;;;;;;2.13;0.60;;;38.70;1.00;;;;;;5019918;28;36644;-77
2022/07/18 12:57:17;;;;;;;2.47;0.63;;;38.70;1.00;;;;;;5025253;28;34134;-77
2022/07/18 12:59:44;;;;;;;1.45;0.80;;;38.60;1.00;;;;;;5051323;27;34338;-76
2022/07/18 13:02:11;;;;;;;1.95;0.70;;;38.50;1.00;;;;;;5036696;27;34513;-77
2022/07/18 13:04:37;;;;;;;1.80;0.75;;;38.60;1.00;;;;;;5008775;28;35712;-75
2022/07/18 13:07:03;;;;;;;2.83;0.70;;;38.60;1.00;;;;;;5025100;28;34060;-79
2022/07/18 13:09:29;;;;;;;0.60;0.60;;;38.50;1.00;;;;;;5004627;28;34806;-75